Time;durP1;ratioP1;P1;durP2;ratioP2;P2;SDS_P1;SDS_P2;PMS_P1;PMS_P2;Temp;Humidity;BMP_temperature;BMP_pressure;BME280_temperature;BME280_humidity;BME280_pressure;Samples;Min_cycle;Max_cycle;Signal;HPM_P1;HPM_P2
2022/08/14 00:02:02;;;;;;;2.83;2.63;;;13.60;99.90;;;;;;4905710;29;20059;-84
2022/08/14 00:05:45;;;;;;;2.88;2.67;;;13.60;99.90;;;;;;4885995;29;20060;-84
2022/08/14 00:09:52;;;;;;;3.47;3.17;;;13.60;99.90;;;;;;4869209;29;20052;-84
2022/08/14 00:13:41;;;;;;;4.40;3.35;;;13.40;99.90;;;;;;4899186;29;20072;-83
2022/08/14 00:17:59;;;;;;;5.00;2.92;;;13.30;99.90;;;;;;4828019;29;20588;-84
2022/08/14 00:21:44;;;;;;;3.92;3.63;;;13.30;99.90;;;;;;4794625;29;20519;-84
2022/08/14 00:30:46;;;;;;;;;;;;;;;;;;;;;
2022/08/14 00:34:52;;;;;;;3.50;2.78;;;13.10;99.90;;;;;;4741221;30;20048;-84
2022/08/14 00:39:35;;;;;;;3.58;3.28;;;12.90;99.90;;;;;;4730025;30;20064;-84
2022/08/14 00:47:24;;;;;;;3.42;3.17;;;12.80;99.90;;;;;;4734673;30;20543;-84
2022/08/14 00:51:15;;;;;;;4.50;3.92;;;12.60;99.90;;;;;;4693705;30;20048;-83
2022/08/14 00:55:16;;;;;;;;;;;;;;;;;;;;;
2022/08/14 01:03:01;;;;;;;3.17;2.97;;;12.70;99.90;;;;;;4764150;30;20060;-83
2022/08/14 01:06:05;;;;;;;4.32;4.03;;;12.60;99.90;;;;;;4766546;29;20058;-83
2022/08/14 01:09:39;;;;;;;12.70;5.57;;;12.40;99.90;;;;;;4760112;29;20055;-84
2022/08/14 01:12:21;;;;;;;4.82;4.40;;;12.80;99.90;;;;;;4796570;29;20078;-84
2022/08/14 01:15:47;;;;;;;3.90;3.60;;;12.80;99.90;;;;;;4793419;29;20094;-84
2022/08/14 01:28:10;;;;;;;4.05;3.63;;;12.50;99.90;;;;;;4773045;29;20051;-84
2022/08/14 01:35:35;;;;;;;3.97;3.67;;;12.40;99.90;;;;;;4801041;29;20057;-79
2022/08/14 01:38:33;;;;;;;3.92;3.63;;;12.60;99.90;;;;;;4836918;29;20042;-79
2022/08/14 01:42:18;;;;;;;;;;;;;;;;;;;;;
2022/08/14 01:47:12;;;;;;;4.15;3.85;;;12.80;99.90;;;;;;4885215;29;20053;-84
2022/08/14 03:31:14;;;;;;;5.20;4.75;;;11.40;99.90;;;;;;6121234;23;20026;-82
2022/08/14 03:33:57;;;;;;;4.68;4.28;;;11.50;99.90;;;;;;6112806;23;20029;-83
2022/08/14 03:50:49;;;;;;;;;;;;;;;;;;;;;
2022/08/14 03:55:23;;;;;;;;;;;;;;;;;;;;;
2022/08/14 04:04:20;;;;;;;4.93;3.67;;;12.30;99.90;;;;;;6031773;23;20054;-82
2022/08/14 04:07:57;;;;;;;;;;;;;;;;;;;;;
2022/08/14 04:12:01;;;;;;;4.10;3.80;;;12.60;99.90;;;;;;5981760;23;20051;-82
2022/08/14 04:15:46;;;;;;;5.25;4.72;;;12.70;99.90;;;;;;5960488;23;20032;-83
2022/08/14 04:19:52;;;;;;;5.03;4.60;;;12.70;99.90;;;;;;5930789;24;20028;-83
2022/08/14 05:07:18;;;;;;;5.63;5.00;;;12.50;99.90;;;;;;5879941;24;20025;-82
2022/08/14 05:52:10;;;;;;;5.40;4.47;;;14.70;99.90;;;;;;5772290;24;20077;-85
2022/08/14 06:05:19;;;;;;;6.47;5.55;;;15.80;99.90;;;;;;5794356;24;20034;-76
2022/08/14 06:36:18;;;;;;;4.50;4.15;;;18.00;99.90;;;;;;5943644;23;20026;-84
2022/08/14 07:30:57;;;;;;;3.63;3.33;;;19.70;99.90;;;;;;5875395;24;20033;-84
2022/08/14 07:34:13;;;;;;;7.20;3.95;;;20.50;99.90;;;;;;5844482;24;20125;-84
2022/08/14 07:49:27;;;;;;;3.55;3.00;;;21.20;99.90;;;;;;6007397;23;20038;-85
2022/08/14 08:00:09;;;;;;;3.10;2.85;;;22.80;99.90;;;;;;6073042;23;20027;-85
2022/08/14 08:02:58;;;;;;;9.75;4.05;;;22.90;99.90;;;;;;6028058;23;20028;-82
2022/08/14 08:05:27;;;;;;;3.80;2.80;;;22.60;99.90;;;;;;5996170;23;20027;-83
2022/08/14 08:08:26;;;;;;;2.70;2.50;;;22.60;99.00;;;;;;6022768;23;20026;-84
2022/08/14 08:11:00;;;;;;;2.97;2.78;;;22.50;99.40;;;;;;6065001;23;20029;-83
2022/08/14 08:13:36;;;;;;;2.55;2.22;;;22.50;98.90;;;;;;6066049;23;20031;-84
2022/08/14 08:16:09;;;;;;;3.38;3.08;;;22.70;99.20;;;;;;6074699;23;20030;-83
2022/08/14 08:18:42;;;;;;;5.05;3.55;;;22.80;99.90;;;;;;6052733;23;20031;-84
2022/08/14 08:21:33;;;;;;;3.60;3.30;;;22.90;99.50;;;;;;6043804;23;20429;-84
2022/08/14 08:24:05;;;;;;;3.90;3.42;;;22.80;98.90;;;;;;6017383;23;20022;-86
2022/08/14 08:26:35;;;;;;;3.28;3.08;;;22.90;98.00;;;;;;6066285;23;20026;-84
2022/08/14 08:29:08;;;;;;;2.58;2.38;;;23.10;98.60;;;;;;6039353;23;20410;-84
2022/08/14 08:31:53;;;;;;;3.42;3.17;;;23.50;97.80;;;;;;6074555;23;20048;-84
2022/08/14 08:34:21;;;;;;;2.65;2.45;;;23.60;96.60;;;;;;6085889;23;20021;-83
2022/08/14 08:37:11;;;;;;;2.60;2.40;;;23.70;97.20;;;;;;6102804;23;20121;-86
2022/08/14 08:40:17;;;;;;;3.22;2.75;;;23.90;96.80;;;;;;6081276;23;20018;-85
2022/08/14 08:43:29;;;;;;;2.55;2.35;;;23.80;94.40;;;;;;6080147;23;20028;-85
2022/08/14 08:46:02;;;;;;;2.92;2.70;;;23.80;94.70;;;;;;6160358;23;20442;-85
2022/08/14 08:48:50;;;;;;;3.10;2.78;;;23.80;95.10;;;;;;6079530;23;20017;-83
2022/08/14 08:51:27;;;;;;;2.45;2.25;;;23.80;94.90;;;;;;6114578;23;20025;-82
2022/08/14 08:54:04;;;;;;;2.72;2.53;;;24.00;95.60;;;;;;6134467;23;20021;-82
2022/08/14 08:56:49;;;;;;;2.83;2.63;;;24.10;94.70;;;;;;6149153;23;20029;-82
2022/08/14 08:59:27;;;;;;;2.92;2.72;;;24.10;94.70;;;;;;6056126;23;20031;-82
2022/08/14 09:02:06;;;;;;;3.33;3.00;;;24.10;94.60;;;;;;6048384;23;20026;-81
2022/08/14 09:04:40;;;;;;;3.25;2.95;;;24.10;94.50;;;;;;6069228;23;20029;-82
2022/08/14 09:07:26;;;;;;;6.40;3.50;;;24.20;95.70;;;;;;6106138;23;20022;-81
2022/08/14 09:09:55;;;;;;;3.67;3.38;;;24.30;94.40;;;;;;6104579;23;20591;-81
2022/08/14 09:12:32;;;;;;;3.25;2.95;;;24.40;94.40;;;;;;6104712;23;20015;-82
2022/08/14 09:15:05;;;;;;;2.63;2.42;;;24.30;95.70;;;;;;6124824;23;20040;-81
2022/08/14 09:17:39;;;;;;;3.67;3.13;;;24.50;95.00;;;;;;6130418;23;20026;-81
2022/08/14 09:20:12;;;;;;;3.45;3.17;;;24.70;94.30;;;;;;6109460;23;20032;-84
2022/08/14 09:22:54;;;;;;;2.70;2.50;;;24.70;94.40;;;;;;6095427;23;20353;-81
2022/08/14 09:25:21;;;;;;;3.47;3.08;;;24.60;94.60;;;;;;6074715;23;20022;-85
2022/08/14 09:28:14;;;;;;;3.30;2.92;;;24.60;94.30;;;;;;6105518;23;20014;-84
2022/08/14 09:30:54;;;;;;;2.78;2.58;;;24.70;93.80;;;;;;6051293;23;20026;-81
2022/08/14 09:33:43;;;;;;;3.17;2.67;;;24.90;94.30;;;;;;6154525;23;20462;-82
2022/08/14 09:36:46;;;;;;;2.88;2.67;;;25.10;93.40;;;;;;6078088;23;20111;-83
2022/08/14 09:39:41;;;;;;;3.50;3.17;;;25.00;93.20;;;;;;6108506;23;20026;-81
2022/08/14 09:42:39;;;;;;;3.60;3.30;;;24.90;93.20;;;;;;6132248;23;20036;-82
2022/08/14 09:45:33;;;;;;;6.82;3.95;;;24.90;93.80;;;;;;6108110;23;20026;-82
2022/08/14 09:48:24;;;;;;;3.97;3.45;;;25.10;93.00;;;;;;6108371;23;20022;-81
2022/08/14 09:50:59;;;;;;;2.45;2.35;;;25.20;92.70;;;;;;6098695;23;20492;-82
2022/08/14 09:53:40;;;;;;;4.25;3.17;;;25.20;92.60;;;;;;6104601;23;20045;-82
2022/08/14 09:56:28;;;;;;;3.40;3.20;;;25.30;93.30;;;;;;6106863;23;20017;-81
2022/08/14 09:59:13;;;;;;;3.78;3.00;;;25.50;92.10;;;;;;6153740;23;20022;-83
2022/08/14 10:01:43;;;;;;;3.65;2.75;;;25.40;91.60;;;;;;6109297;23;20033;-80
2022/08/14 10:04:25;;;;;;;3.28;3.08;;;25.30;91.40;;;;;;6164867;23;20445;-81
2022/08/14 10:07:08;;;;;;;3.97;3.67;;;25.30;92.20;;;;;;6127573;23;20029;-82
2022/08/14 10:09:48;;;;;;;14.25;4.53;;;25.20;91.20;;;;;;6103111;23;20410;-84
2022/08/14 10:12:43;;;;;;;3.85;3.55;;;25.10;92.00;;;;;;6106774;23;20025;-87
2022/08/14 10:15:19;;;;;;;3.00;2.80;;;25.20;91.80;;;;;;6147568;23;20485;-84
2022/08/14 10:18:08;;;;;;;2.97;2.78;;;25.30;90.90;;;;;;6133043;23;20026;-84
2022/08/14 10:20:52;;;;;;;2.90;2.70;;;25.40;91.30;;;;;;6137151;23;20018;-80
2022/08/14 10:23:22;;;;;;;3.67;2.58;;;25.50;92.20;;;;;;6103335;23;20028;-83
2022/08/14 10:25:56;;;;;;;16.85;3.03;;;25.70;92.40;;;;;;6103472;23;20037;-82
2022/08/14 10:28:50;;;;;;;5.68;3.13;;;25.90;91.40;;;;;;6102044;23;20021;-83
2022/08/14 10:31:43;;;;;;;4.18;3.67;;;26.10;90.50;;;;;;6124742;23;20036;-81
2022/08/14 10:34:19;;;;;;;3.28;3.05;;;26.10;90.30;;;;;;6105584;23;20488;-81
2022/08/14 10:37:15;;;;;;;3.70;3.22;;;26.10;89.70;;;;;;6137416;23;20029;-83
2022/08/14 10:39:59;;;;;;;3.65;3.33;;;26.10;87.40;;;;;;6129529;23;20022;-82
2022/08/14 10:42:42;;;;;;;3.75;3.42;;;26.10;90.00;;;;;;6109792;23;20033;-82
2022/08/14 10:45:21;;;;;;;4.40;3.10;;;26.30;91.00;;;;;;6106050;23;20472;-82
2022/08/14 10:47:50;;;;;;;3.40;3.17;;;26.20;90.10;;;;;;6106003;23;20029;-83
2022/08/14 10:50:44;;;;;;;3.28;3.08;;;26.20;90.60;;;;;;6157464;23;20365;-83
2022/08/14 10:53:13;;;;;;;3.22;3.03;;;26.40;90.10;;;;;;6137085;23;20025;-82
2022/08/14 10:55:42;;;;;;;3.65;3.35;;;26.30;89.20;;;;;;6130032;23;20032;-82
2022/08/14 10:58:12;;;;;;;;;;;26.20;89.00;;;;;;6134314;23;20033;-81
2022/08/14 11:01:06;;;;;;;3.13;2.42;;;26.40;90.00;;;;;;6129481;23;19916;-83
2022/08/14 11:03:47;;;;;;;3.95;2.90;;;26.40;88.00;;;;;;6106077;23;20029;-85
2022/08/14 11:06:55;;;;;;;3.40;3.10;;;26.40;86.70;;;;;;6085870;23;20044;-84
2022/08/14 11:09:28;;;;;;;6.15;3.65;;;26.60;87.30;;;;;;6162130;23;20022;-82
2022/08/14 11:12:00;;;;;;;4.00;3.70;;;26.60;88.60;;;;;;6130248;23;20338;-82
2022/08/14 11:15:00;;;;;;;3.80;3.50;;;26.40;85.40;;;;;;6156588;23;20026;-81
2022/08/14 11:17:36;;;;;;;3.53;3.22;;;26.30;87.00;;;;;;6162139;23;20021;-81
2022/08/14 11:20:07;;;;;;;4.38;3.05;;;26.50;88.60;;;;;;6166236;23;20025;-84
2022/08/14 11:22:43;;;;;;;4.60;3.33;;;26.70;86.00;;;;;;6156528;23;20022;-82
2022/08/14 11:25:28;;;;;;;3.13;2.88;;;26.60;86.50;;;;;;6129804;23;20402;-81
2022/08/14 11:28:15;;;;;;;5.85;3.22;;;26.50;89.10;;;;;;6105211;23;20018;-84
2022/08/14 11:30:49;;;;;;;8.48;3.35;;;26.50;89.00;;;;;;6156497;23;20033;-85
2022/08/14 11:33:28;;;;;;;3.30;3.10;;;26.40;86.50;;;;;;6137914;23;20021;-83
2022/08/14 11:36:04;;;;;;;3.17;2.97;;;26.50;87.10;;;;;;6105925;23;20024;-82
2022/08/14 11:38:45;;;;;;;4.18;3.08;;;26.50;86.30;;;;;;6133305;23;20385;-82
2022/08/14 11:41:21;;;;;;;2.53;2.30;;;26.50;89.70;;;;;;6104378;23;20064;-84
2022/08/14 11:44:33;;;;;;;4.38;2.63;;;26.70;85.40;;;;;;6140993;23;20017;-83
2022/08/14 11:47:18;;;;;;;2.70;2.50;;;27.00;84.10;;;;;;6141259;23;20021;-82
2022/08/14 11:49:47;;;;;;;2.33;1.98;;;27.20;80.90;;;;;;6134651;23;20022;-82
2022/08/14 11:52:18;;;;;;;3.15;2.88;;;27.00;80.70;;;;;;6115957;23;20329;-83
2022/08/14 11:54:56;;;;;;;10.23;3.03;;;27.10;80.00;;;;;;6129283;23;20033;-80
2022/08/14 11:57:24;;;;;;;2.60;2.40;;;26.90;82.00;;;;;;6104441;23;20270;-81
2022/08/14 12:00:08;;;;;;;2.72;2.53;;;26.80;83.80;;;;;;6166137;23;20060;-83
2022/08/14 12:02:59;;;;;;;2.75;2.55;;;26.80;84.40;;;;;;6156529;23;20028;-82
2022/08/14 12:05:41;;;;;;;2.88;2.67;;;26.80;84.00;;;;;;6161292;23;20025;-81
2022/08/14 12:08:09;;;;;;;6.70;2.85;;;26.90;85.10;;;;;;6139746;23;20021;-83
2022/08/14 12:10:43;;;;;;;2.88;2.67;;;26.90;82.00;;;;;;6104868;23;20025;-82
2022/08/14 12:13:18;;;;;;;2.63;2.40;;;27.00;82.50;;;;;;6162306;23;20028;-81
2022/08/14 12:15:57;;;;;;;3.22;2.95;;;27.00;83.90;;;;;;6081523;23;20028;-82
2022/08/14 12:18:36;;;;;;;3.45;2.88;;;27.20;82.30;;;;;;6104704;23;20029;-80
2022/08/14 12:21:22;;;;;;;3.45;3.22;;;27.10;82.40;;;;;;6137429;23;20014;-81
2022/08/14 12:24:07;;;;;;;3.17;2.92;;;27.00;84.60;;;;;;6115582;23;20333;-82
2022/08/14 12:26:36;;;;;;;3.75;3.38;;;27.10;85.40;;;;;;6104216;23;20053;-82
2022/08/14 12:29:13;;;;;;;3.00;2.53;;;27.10;83.00;;;;;;6103912;23;20028;-84
2022/08/14 12:31:46;;;;;;;3.42;3.13;;;27.00;82.60;;;;;;6115792;23;20009;-81
2022/08/14 12:34:21;;;;;;;8.57;3.80;;;27.10;87.10;;;;;;6108370;23;20025;-84
2022/08/14 12:37:15;;;;;;;3.33;2.67;;;27.20;80.60;;;;;;6105776;23;20033;-82
2022/08/14 12:39:44;;;;;;;2.70;2.47;;;27.20;80.50;;;;;;6129329;23;20017;-82
2022/08/14 12:42:15;;;;;;;2.85;2.63;;;27.20;79.30;;;;;;6158390;23;20036;-82
2022/08/14 12:45:01;;;;;;;3.42;3.15;;;27.20;81.80;;;;;;6128708;23;20452;-82
2022/08/14 12:47:31;;;;;;;3.40;3.10;;;27.10;81.70;;;;;;6140122;23;20014;-81
2022/08/14 12:49:59;;;;;;;4.47;4.10;;;27.20;82.20;;;;;;6133195;23;20021;-83
2022/08/14 12:52:32;;;;;;;3.70;3.40;;;27.30;82.20;;;;;;6129041;23;20021;-82
2022/08/14 12:55:20;;;;;;;3.38;3.08;;;27.50;84.00;;;;;;6100924;23;20032;-82
2022/08/14 12:58:11;;;;;;;2.92;2.67;;;27.40;82.60;;;;;;6075067;23;20331;-81
2022/08/14 13:01:17;;;;;;;3.35;3.05;;;27.40;80.40;;;;;;6107719;23;20022;-84
2022/08/14 13:03:47;;;;;;;3.20;2.92;;;27.30;81.80;;;;;;6076535;23;20025;-82
2022/08/14 13:06:24;;;;;;;2.92;2.70;;;27.30;79.80;;;;;;6102038;23;20437;-83
2022/08/14 13:08:53;;;;;;;18.60;3.08;;;27.30;81.40;;;;;;6084240;23;20434;-81
2022/08/14 13:11:34;;;;;;;3.22;3.03;;;27.40;82.70;;;;;;6109465;23;20025;-82
2022/08/14 13:14:08;;;;;;;2.63;2.42;;;27.60;82.60;;;;;;6074822;23;20029;-81
2022/08/14 13:16:44;;;;;;;4.55;4.25;;;27.50;82.10;;;;;;6053012;23;20014;-84
2022/08/14 13:19:18;;;;;;;3.80;2.88;;;27.70;79.20;;;;;;6075640;23;20014;-82
2022/08/14 13:21:50;;;;;;;4.00;2.83;;;27.50;80.70;;;;;;6051488;23;20025;-82
2022/08/14 13:24:33;;;;;;;3.10;2.90;;;27.50;81.60;;;;;;6055263;23;20014;-84
2022/08/14 13:27:03;;;;;;;2.58;2.38;;;27.70;77.20;;;;;;6075103;23;20022;-85
2022/08/14 13:29:40;;;;;;;3.53;3.22;;;27.70;76.30;;;;;;6130644;23;20022;-85
2022/08/14 13:34:16;;;;;;;3.70;3.40;;;27.50;76.90;;;;;;6148102;23;20032;-84
2022/08/14 13:36:44;;;;;;;3.65;2.97;;;27.80;79.30;;;;;;6184495;23;20017;-83
2022/08/14 13:40:38;;;;;;;;;;;;;;;;;;;;;
2022/08/14 13:44:44;;;;;;;3.58;3.28;;;27.80;78.90;;;;;;6214446;23;20480;-85
2022/08/14 13:47:54;;;;;;;3.45;3.15;;;27.80;80.30;;;;;;6147823;23;20035;-86
2022/08/14 13:50:27;;;;;;;;;;;27.70;80.50;;;;;;6212423;23;20021;-85
2022/08/14 13:52:59;;;;;;;3.30;3.00;;;27.70;80.20;;;;;;6221402;23;19924;-84
2022/08/14 13:55:44;;;;;;;3.65;3.30;;;27.80;79.80;;;;;;6163041;23;20075;-86
2022/08/14 13:58:50;;;;;;;3.13;2.92;;;27.70;79.50;;;;;;6132807;23;20020;-83
2022/08/14 14:01:44;;;;;;;2.40;2.20;;;27.70;80.70;;;;;;6183719;23;20033;-85
2022/08/14 14:04:29;;;;;;;3.35;3.10;;;27.80;79.60;;;;;;6223897;23;20019;-85
2022/08/14 14:07:07;;;;;;;4.07;2.53;;;27.80;78.40;;;;;;6213112;23;20020;-81
2022/08/14 14:09:41;;;;;;;3.60;2.80;;;27.90;79.00;;;;;;6187185;23;20013;-83
2022/08/14 14:12:27;;;;;;;2.97;2.78;;;27.80;80.10;;;;;;6224742;23;20009;-84
2022/08/14 14:15:10;;;;;;;4.65;2.90;;;27.80;79.90;;;;;;6189922;23;20464;-83
2022/08/14 14:17:39;;;;;;;2.72;2.40;;;28.00;79.60;;;;;;6218209;23;20025;-83
2022/08/14 14:20:17;;;;;;;3.88;2.95;;;28.20;79.60;;;;;;6198885;23;20020;-84
2022/08/14 14:23:09;;;;;;;4.43;2.92;;;28.30;78.70;;;;;;6186725;23;20498;-89
2022/08/14 14:25:44;;;;;;;3.95;2.95;;;28.30;77.80;;;;;;6164121;23;20025;-83
2022/08/14 14:28:30;;;;;;;3.53;3.22;;;28.10;79.00;;;;;;6163351;23;20020;-83
2022/08/14 14:31:00;;;;;;;;;;;28.00;78.10;;;;;;6187566;23;20021;-83
2022/08/14 14:33:58;;;;;;;3.35;2.75;;;27.90;78.80;;;;;;6146892;23;19927;-84
2022/08/14 14:36:29;;;;;;;3.28;2.95;;;28.10;79.60;;;;;;6224023;23;20538;-83
2022/08/14 14:39:07;;;;;;;3.22;2.95;;;28.30;80.00;;;;;;6183874;23;20031;-84
2022/08/14 14:41:49;;;;;;;3.10;2.83;;;28.60;80.60;;;;;;6162379;23;20032;-86
2022/08/14 14:44:30;;;;;;;4.55;3.08;;;28.60;77.00;;;;;;6163064;23;20515;-82
2022/08/14 14:47:10;;;;;;;2.83;2.63;;;28.50;78.60;;;;;;6155782;23;20028;-84
2022/08/14 14:49:48;;;;;;;3.22;2.92;;;28.40;77.00;;;;;;6192235;23;20464;-82
2022/08/14 14:52:32;;;;;;;6.30;2.40;;;28.30;76.90;;;;;;6187033;23;20017;-84
2022/08/14 14:55:51;;;;;;;2.80;2.28;;;28.50;74.10;;;;;;6176762;23;20719;-88
2022/08/14 14:58:46;;;;;;;1.90;1.80;;;29.00;74.00;;;;;;6168074;23;20028;-85
2022/08/14 15:01:59;;;;;;;2.70;2.50;;;29.10;70.30;;;;;;6170873;23;20032;-84
2022/08/14 15:04:27;;;;;;;2.83;2.63;;;29.20;73.80;;;;;;6214270;23;20013;-84
2022/08/14 15:06:55;;;;;;;3.80;2.85;;;29.10;74.10;;;;;;6187536;23;20028;-83
2022/08/14 15:09:33;;;;;;;5.97;2.97;;;29.10;74.80;;;;;;6175061;23;20109;-85
2022/08/14 15:12:24;;;;;;;3.15;2.85;;;29.00;74.50;;;;;;6184075;23;20009;-87
2022/08/14 15:15:28;;;;;;;4.03;3.60;;;28.70;76.20;;;;;;6148032;23;20464;-84
2022/08/14 15:18:00;;;;;;;3.40;3.10;;;28.50;75.80;;;;;;6219639;23;20036;-83
2022/08/14 15:20:28;;;;;;;4.72;3.42;;;28.40;76.50;;;;;;6189403;23;20101;-83
2022/08/14 15:23:00;;;;;;;5.30;2.78;;;28.40;77.00;;;;;;6188780;23;20028;-83
2022/08/14 15:25:40;;;;;;;3.10;2.80;;;28.40;77.20;;;;;;6220619;23;20084;-83
2022/08/14 15:28:20;;;;;;;;;;;28.30;77.50;;;;;;6202653;23;20017;-85
2022/08/14 15:30:53;;;;;;;3.63;3.33;;;28.30;78.00;;;;;;6190501;23;19924;-84
2022/08/14 15:36:50;;;;;;;3.40;3.10;;;28.40;78.00;;;;;;6163269;23;20448;-83
2022/08/14 15:39:18;;;;;;;3.45;3.03;;;28.40;78.70;;;;;;6199521;23;20016;-84
2022/08/14 15:41:48;;;;;;;2.92;2.72;;;28.40;77.70;;;;;;6169505;23;20025;-81
2022/08/14 15:44:25;;;;;;;3.05;2.75;;;28.40;77.40;;;;;;6225669;23;20017;-83
2022/08/14 15:47:05;;;;;;;3.85;3.55;;;28.40;77.90;;;;;;6214960;23;20021;-82
2022/08/14 15:49:36;;;;;;;3.80;3.50;;;28.40;79.00;;;;;;6205930;23;20024;-83
2022/08/14 15:52:06;;;;;;;2.58;2.38;;;28.50;77.80;;;;;;6224967;23;20008;-82
2022/08/14 15:54:46;;;;;;;3.28;2.97;;;28.40;77.50;;;;;;6216713;23;20028;-84
2022/08/14 15:57:24;;;;;;;3.55;2.63;;;28.30;77.90;;;;;;6220997;23;20444;-83
2022/08/14 16:03:12;;;;;;;3.03;2.78;;;28.20;79.50;;;;;;6224631;23;20159;-83
2022/08/14 16:05:44;;;;;;;3.90;3.60;;;28.30;79.50;;;;;;6173955;23;20025;-84
2022/08/14 16:08:15;;;;;;;9.05;3.55;;;28.30;79.80;;;;;;6225646;23;20020;-83
2022/08/14 16:11:01;;;;;;;3.80;3.33;;;28.20;78.80;;;;;;6215514;23;20043;-84
2022/08/14 16:13:42;;;;;;;3.22;2.92;;;28.20;80.00;;;;;;6194774;23;20020;-84
2022/08/14 16:16:14;;;;;;;4.20;3.80;;;28.20;78.50;;;;;;6225761;23;20459;-85
2022/08/14 16:19:09;;;;;;;3.75;2.78;;;28.10;79.30;;;;;;6193442;23;20452;-85
2022/08/14 16:21:42;;;;;;;4.22;3.83;;;28.00;79.50;;;;;;6220016;23;20031;-84
2022/08/14 16:24:38;;;;;;;2.95;2.72;;;28.00;79.90;;;;;;6225752;23;20020;-84
2022/08/14 16:27:27;;;;;;;3.30;2.65;;;28.00;80.00;;;;;;6200409;23;20024;-83
2022/08/14 16:30:13;;;;;;;3.70;3.40;;;28.10;81.00;;;;;;6202615;23;20372;-84
2022/08/14 16:32:57;;;;;;;3.92;3.33;;;28.10;81.30;;;;;;6199499;23;20024;-83
2022/08/14 16:35:27;;;;;;;3.92;3.63;;;28.10;80.10;;;;;;6225500;23;20023;-82
2022/08/14 16:38:15;;;;;;;3.65;3.35;;;27.90;81.80;;;;;;6217698;23;20479;-84
2022/08/14 16:41:19;;;;;;;3.85;3.53;;;27.90;81.20;;;;;;6221899;23;20032;-83
2022/08/14 16:43:53;;;;;;;4.70;4.17;;;27.90;81.80;;;;;;6214982;23;20384;-84
2022/08/14 16:46:33;;;;;;;6.20;3.75;;;27.80;81.70;;;;;;6217010;23;20025;-83
2022/08/14 16:49:17;;;;;;;4.65;3.28;;;27.80;82.00;;;;;;6221903;23;20024;-83
2022/08/14 16:51:52;;;;;;;4.95;3.85;;;27.80;84.10;;;;;;6225040;23;20471;-84
2022/08/14 16:54:20;;;;;;;2.72;2.53;;;28.00;82.50;;;;;;6217038;23;20030;-84
2022/08/14 16:57:18;;;;;;;3.90;3.50;;;27.90;82.60;;;;;;6222201;23;20027;-82
2022/08/14 16:59:50;;;;;;;4.40;4.07;;;27.80;83.30;;;;;;6198464;23;20020;-83
2022/08/14 17:02:45;;;;;;;5.78;4.10;;;27.70;82.60;;;;;;6216869;23;20025;-82
2022/08/14 17:05:25;;;;;;;23.48;5.90;;;27.60;83.80;;;;;;6196004;23;20020;-82
2022/08/14 17:08:14;;;;;;;3.97;3.67;;;27.60;83.20;;;;;;6224691;23;20424;-82
2022/08/14 17:11:07;;;;;;;4.95;3.70;;;27.50;83.90;;;;;;6214283;23;20036;-83
2022/08/14 17:13:41;;;;;;;4.35;3.88;;;27.50;83.70;;;;;;6219452;23;20028;-83
2022/08/14 17:16:37;;;;;;;7.03;3.75;;;28.40;82.90;;;;;;6167646;23;20032;-83
2022/08/14 17:19:07;;;;;;;6.68;3.10;;;28.20;81.90;;;;;;6213499;23;20036;-83
2022/08/14 17:21:43;;;;;;;9.10;3.90;;;27.80;83.10;;;;;;6219355;23;20032;-83
2022/08/14 17:24:19;;;;;;;4.60;4.20;;;27.60;85.30;;;;;;6188043;23;20069;-83
2022/08/14 17:27:09;;;;;;;5.00;4.53;;;27.30;84.70;;;;;;6187089;23;20775;-84
2022/08/14 17:29:45;;;;;;;4.40;3.75;;;27.20;85.40;;;;;;6219397;23;20029;-83
2022/08/14 17:32:29;;;;;;;4.00;3.60;;;27.00;86.10;;;;;;6224294;23;20013;-77
2022/08/14 17:35:25;;;;;;;4.00;3.70;;;27.00;86.90;;;;;;6195812;23;20036;-77
2022/08/14 17:38:17;;;;;;;4.53;3.20;;;27.20;86.00;;;;;;6214911;23;20021;-77
2022/08/14 17:41:22;;;;;;;4.60;4.20;;;27.50;85.20;;;;;;6220397;23;20073;-82
2022/08/14 17:43:55;;;;;;;4.22;3.58;;;28.50;84.90;;;;;;6217970;23;20013;-82
2022/08/14 17:46:36;;;;;;;5.30;4.25;;;29.10;83.60;;;;;;6191621;23;20433;-82
2022/08/14 17:49:12;;;;;;;4.47;4.05;;;28.40;83.50;;;;;;6221867;23;20344;-81
2022/08/14 17:52:02;;;;;;;13.25;3.95;;;27.60;84.50;;;;;;6224517;23;20016;-82
2022/08/14 17:54:51;;;;;;;3.55;3.25;;;26.90;86.00;;;;;;6191502;23;20802;-81
2022/08/14 17:57:32;;;;;;;4.43;4.03;;;26.30;87.40;;;;;;6219902;23;20026;-82
2022/08/14 18:00:11;;;;;;;10.02;3.78;;;25.80;89.00;;;;;;6224554;23;20020;-82
2022/08/14 18:02:41;;;;;;;6.32;3.88;;;25.50;90.30;;;;;;6215123;23;20495;-81
2022/08/14 18:05:18;;;;;;;5.43;3.70;;;25.10;90.70;;;;;;6196762;23;20790;-81
2022/08/14 18:08:06;;;;;;;4.95;4.47;;;24.80;91.20;;;;;;6223559;23;20016;-82
2022/08/14 18:10:55;;;;;;;7.28;4.05;;;24.40;91.60;;;;;;6214283;23;20029;-81
2022/08/14 18:13:25;;;;;;;4.13;3.50;;;24.10;93.20;;;;;;6162611;23;20356;-82
2022/08/14 18:16:13;;;;;;;5.30;4.40;;;23.90;92.70;;;;;;6142746;23;20013;-82
2022/08/14 18:18:50;;;;;;;8.35;3.88;;;23.70;92.80;;;;;;6162057;23;20024;-81
2022/08/14 18:21:21;;;;;;;5.03;4.55;;;23.50;93.60;;;;;;6194716;23;20029;-81
2022/08/14 18:24:09;;;;;;;;;;;23.30;93.40;;;;;;6225172;23;20027;-82
2022/08/14 18:27:18;;;;;;;4.93;3.53;;;23.10;94.10;;;;;;6214281;23;19916;-81
2022/08/14 18:29:58;;;;;;;4.78;3.30;;;22.90;93.90;;;;;;6218957;23;20029;-82
2022/08/14 18:32:26;;;;;;;3.95;3.50;;;22.80;94.00;;;;;;6224572;23;20467;-81
2022/08/14 18:35:05;;;;;;;4.50;4.07;;;22.70;94.00;;;;;;6214179;23;20464;-81
2022/08/14 18:37:40;;;;;;;4.15;3.75;;;22.60;94.20;;;;;;6219630;23;20105;-81
2022/08/14 18:40:17;;;;;;;3.72;3.42;;;22.40;94.80;;;;;;6162871;23;20023;-82
2022/08/14 18:42:49;;;;;;;5.20;3.50;;;22.30;95.30;;;;;;6162947;23;20044;-81
2022/08/14 18:45:25;;;;;;;4.55;4.15;;;22.00;96.10;;;;;;6187038;23;20025;-81
2022/08/14 18:48:17;;;;;;;7.70;5.63;;;21.70;96.40;;;;;;6163631;23;20023;-81
2022/08/14 18:50:59;;;;;;;4.63;3.97;;;21.40;97.10;;;;;;6190036;23;20023;-81
2022/08/14 18:53:29;;;;;;;5.03;4.25;;;21.10;97.70;;;;;;6195574;23;20016;-81
2022/08/14 18:56:01;;;;;;;3.53;3.20;;;21.00;97.90;;;;;;6165930;23;20013;-81
2022/08/14 18:58:54;;;;;;;4.38;4.03;;;20.80;98.60;;;;;;6164024;23;20024;-81
2022/08/14 19:01:28;;;;;;;4.30;3.97;;;20.60;99.00;;;;;;6196807;23;20031;-81
2022/08/14 19:03:58;;;;;;;4.20;3.83;;;20.40;99.00;;;;;;6189375;23;20020;-81
2022/08/14 19:06:44;;;;;;;8.95;4.85;;;20.10;99.50;;;;;;6163818;23;20439;-81
2022/08/14 19:10:01;;;;;;;3.75;3.45;;;20.00;99.80;;;;;;6198299;23;20021;-81
2022/08/14 19:12:51;;;;;;;3.72;3.42;;;19.90;99.90;;;;;;6199990;23;20016;-81
2022/08/14 19:15:27;;;;;;;4.82;4.35;;;19.80;99.90;;;;;;6096241;23;20029;-81
2022/08/14 19:17:56;;;;;;;4.03;3.60;;;19.70;99.90;;;;;;6134566;23;20032;-82
2022/08/14 19:20:51;;;;;;;4.63;3.25;;;19.70;99.90;;;;;;6193248;23;20025;-81
2022/08/14 19:23:24;;;;;;;5.15;4.65;;;19.60;99.90;;;;;;6131656;23;20021;-76
2022/08/14 19:26:21;;;;;;;;;;;19.70;99.90;;;;;;6187797;23;20326;-76
2022/08/14 19:29:29;;;;;;;4.43;4.03;;;19.80;99.90;;;;;;6191371;23;19916;-77
2022/08/14 19:32:33;;;;;;;4.80;4.05;;;20.00;99.90;;;;;;6193895;23;20013;-76
2022/08/14 19:35:26;;;;;;;4.32;3.92;;;20.30;99.90;;;;;;6182979;23;20036;-76
2022/08/14 19:38:52;;;;;;;5.27;4.73;;;20.50;99.90;;;;;;6200587;23;20459;-76
2022/08/14 19:41:26;;;;;;;6.28;4.25;;;20.60;99.90;;;;;;6194159;23;20028;-76
2022/08/14 19:44:07;;;;;;;5.50;4.15;;;20.70;99.80;;;;;;6223762;23;20017;-76
2022/08/14 19:46:39;;;;;;;4.35;3.53;;;20.80;99.90;;;;;;6215155;23;20032;-76
2022/08/14 19:49:35;;;;;;;4.72;4.30;;;20.70;99.90;;;;;;6187574;23;20020;-82
2022/08/14 19:52:25;;;;;;;4.57;4.13;;;20.80;99.90;;;;;;6224829;23;20013;-82
2022/08/14 19:54:57;;;;;;;5.95;4.57;;;20.80;99.90;;;;;;6189522;23;20025;-83
2022/08/14 19:57:29;;;;;;;5.72;3.78;;;20.90;99.90;;;;;;6221317;23;20016;-82
2022/08/14 20:00:12;;;;;;;5.20;4.40;;;20.80;99.90;;;;;;6225310;23;20013;-83
2022/08/14 20:03:01;;;;;;;4.15;3.70;;;20.80;99.90;;;;;;6214946;23;20447;-84
2022/08/14 20:05:40;;;;;;;4.28;3.88;;;20.80;99.90;;;;;;6220273;23;20025;-83
2022/08/14 20:08:13;;;;;;;4.97;4.35;;;20.80;99.90;;;;;;6224966;23;20013;-83
2022/08/14 20:11:04;;;;;;;6.47;4.45;;;20.80;99.90;;;;;;6192721;23;20582;-83
2022/08/14 20:14:07;;;;;;;6.90;4.00;;;20.70;99.90;;;;;;6219470;23;20348;-82
2022/08/14 20:16:39;;;;;;;6.25;5.05;;;20.70;99.90;;;;;;6198802;23;20020;-82
2022/08/14 20:19:14;;;;;;;6.35;5.10;;;20.70;99.90;;;;;;6184552;23;20024;-83
2022/08/14 20:21:48;;;;;;;5.32;4.25;;;20.70;99.90;;;;;;6162930;23;20490;-82
2022/08/14 20:24:38;;;;;;;5.93;4.53;;;20.70;99.90;;;;;;6225146;23;20064;-83
2022/08/14 20:27:23;;;;;;;10.02;4.97;;;20.60;99.90;;;;;;6162889;23;20464;-83
2022/08/14 20:30:12;;;;;;;7.40;5.18;;;20.60;99.90;;;;;;6192127;23;20016;-83
2022/08/14 20:33:03;;;;;;;5.20;4.47;;;20.50;99.90;;;;;;6191219;23;20035;-83
2022/08/14 20:35:53;;;;;;;7.10;5.43;;;20.50;99.90;;;;;;6194805;23;20024;-82
2022/08/14 20:38:26;;;;;;;6.93;4.95;;;20.50;99.90;;;;;;6186261;23;20021;-83